sensor_id;sensor_type;location;lat;lon;timestamp;temperature;humidity
14993;DHT22;7592;51.088;13.732;2023-03-14T00:03:34;11.50;99.90
14993;DHT22;7592;51.088;13.732;2023-03-14T00:08:26;11.60;99.90
14993;DHT22;7592;51.088;13.732;2023-03-14T00:13:18;11.60;99.90
14993;DHT22;7592;51.088;13.732;2023-03-14T00:18:10;11.70;99.90
14993;DHT22;7592;51.088;13.732;2023-03-14T00:23:03;11.70;99.90
14993;DHT22;7592;51.088;13.732;2023-03-14T00:27:55;11.70;99.90
14993;DHT22;7592;51.088;13.732;2023-03-14T00:32:47;11.60;99.90
14993;DHT22;7592;51.088;13.732;2023-03-14T00:37:39;11.60;99.90
14993;DHT22;7592;51.088;13.732;2023-03-14T00:42:31;11.60;99.90
14993;DHT22;7592;51.088;13.732;2023-03-14T00:47:23;11.50;99.90
14993;DHT22;7592;51.088;13.732;2023-03-14T00:52:17;11.40;99.90
14993;DHT22;7592;51.088;13.732;2023-03-14T00:57:09;11.40;99.90
14993;DHT22;7592;51.088;13.732;2023-03-14T01:02:01;11.30;99.90
14993;DHT22;7592;51.088;13.732;2023-03-14T01:06:53;11.40;99.90
14993;DHT22;7592;51.088;13.732;2023-03-14T01:11:45;11.40;99.90
14993;DHT22;7592;51.088;13.732;2023-03-14T01:16:38;11.30;99.90
14993;DHT22;7592;51.088;13.732;2023-03-14T01:21:32;11.30;99.90
14993;DHT22;7592;51.088;13.732;2023-03-14T01:26:26;11.30;99.90
14993;DHT22;7592;51.088;13.732;2023-03-14T01:31:19;11.30;99.90
14993;DHT22;7592;51.088;13.732;2023-03-14T01:36:13;11.30;99.90
14993;DHT22;7592;51.088;13.732;2023-03-14T01:41:13;11.40;99.90
14993;DHT22;7592;51.088;13.732;2023-03-14T01:51:09;11.40;99.90
14993;DHT22;7592;51.088;13.732;2023-03-14T01:56:03;11.40;99.90
14993;DHT22;7592;51.088;13.732;2023-03-14T02:00:58;11.40;99.90
14993;DHT22;7592;51.088;13.732;2023-03-14T02:06:24;11.40;99.90
14993;DHT22;7592;51.088;13.732;2023-03-14T02:11:36;11.30;99.90
14993;DHT22;7592;51.088;13.732;2023-03-14T02:16:39;11.30;99.90
14993;DHT22;7592;51.088;13.732;2023-03-14T02:22:10;11.20;99.90
14993;DHT22;7592;51.088;13.732;2023-03-14T02:27:23;11.10;99.90
14993;DHT22;7592;51.088;13.732;2023-03-14T02:32:17;10.90;99.90
14993;DHT22;7592;51.088;13.732;2023-03-14T02:37:10;10.90;99.90
14993;DHT22;7592;51.088;13.732;2023-03-14T02:42:03;10.90;99.90
14993;DHT22;7592;51.088;13.732;2023-03-14T02:46:56;10.70;99.90
14993;DHT22;7592;51.088;13.732;2023-03-14T02:51:50;10.70;99.90
14993;DHT22;7592;51.088;13.732;2023-03-14T02:56:43;10.70;99.90
14993;DHT22;7592;51.088;13.732;2023-03-14T03:01:37;10.70;99.90
14993;DHT22;7592;51.088;13.732;2023-03-14T03:06:29;10.70;99.90
14993;DHT22;7592;51.088;13.732;2023-03-14T03:11:21;10.60;99.90
14993;DHT22;7592;51.088;13.732;2023-03-14T03:16:13;10.70;99.90
14993;DHT22;7592;51.088;13.732;2023-03-14T03:21:08;10.70;99.90
14993;DHT22;7592;51.088;13.732;2023-03-14T03:26:01;10.80;99.90
14993;DHT22;7592;51.088;13.732;2023-03-14T03:30:54;10.80;99.90
14993;DHT22;7592;51.088;13.732;2023-03-14T03:35:49;10.70;99.90
14993;DHT22;7592;51.088;13.732;2023-03-14T03:40:50;10.60;99.90
14993;DHT22;7592;51.088;13.732;2023-03-14T03:45:44;10.60;99.90
14993;DHT22;7592;51.088;13.732;2023-03-14T03:50:36;10.70;99.90
14993;DHT22;7592;51.088;13.732;2023-03-14T03:55:28;10.80;99.90
14993;DHT22;7592;51.088;13.732;2023-03-14T04:00:20;10.80;99.90
14993;DHT22;7592;51.088;13.732;2023-03-14T04:05:13;10.80;99.90
14993;DHT22;7592;51.088;13.732;2023-03-14T04:10:11;10.70;99.90
14993;DHT22;7592;51.088;13.732;2023-03-14T04:15:11;10.70;99.90
14993;DHT22;7592;51.088;13.732;2023-03-14T04:20:08;10.70;99.90
14993;DHT22;7592;51.088;13.732;2023-03-14T04:25:05;10.80;99.90
14993;DHT22;7592;51.088;13.732;2023-03-14T04:30:06;10.90;99.90
14993;DHT22;7592;51.088;13.732;2023-03-14T04:35:12;11.10;99.90
14993;DHT22;7592;51.088;13.732;2023-03-14T04:40:05;11.20;99.90
14993;DHT22;7592;51.088;13.732;2023-03-14T04:44:59;11.20;99.90
14993;DHT22;7592;51.088;13.732;2023-03-14T04:49:56;11.40;99.90
14993;DHT22;7592;51.088;13.732;2023-03-14T04:54:49;11.40;99.90
14993;DHT22;7592;51.088;13.732;2023-03-14T04:59:43;11.50;99.90
14993;DHT22;7592;51.088;13.732;2023-03-14T05:04:58;11.50;99.90
14993;DHT22;7592;51.088;13.732;2023-03-14T05:10:22;11.40;99.90
14993;DHT22;7592;51.088;13.732;2023-03-14T05:15:33;11.40;99.90
14993;DHT22;7592;51.088;13.732;2023-03-14T05:20:45;11.20;99.90
14993;DHT22;7592;51.088;13.732;2023-03-14T05:26:03;11.20;99.90
14993;DHT22;7592;51.088;13.732;2023-03-14T05:31:22;11.30;99.90
14993;DHT22;7592;51.088;13.732;2023-03-14T05:36:32;11.60;99.90
14993;DHT22;7592;51.088;13.732;2023-03-14T05:41:58;11.70;99.90
14993;DHT22;7592;51.088;13.732;2023-03-14T05:47:07;11.70;99.90
14993;DHT22;7592;51.088;13.732;2023-03-14T05:52:20;11.60;99.90
14993;DHT22;7592;51.088;13.732;2023-03-14T05:57:21;11.50;99.90
14993;DHT22;7592;51.088;13.732;2023-03-14T06:02:31;11.60;99.90
14993;DHT22;7592;51.088;13.732;2023-03-14T06:07:31;11.70;99.90
14993;DHT22;7592;51.088;13.732;2023-03-14T06:12:24;11.70;99.90
14993;DHT22;7592;51.088;13.732;2023-03-14T06:17:16;11.70;99.90
14993;DHT22;7592;51.088;13.732;2023-03-14T06:22:16;11.90;99.90
14993;DHT22;7592;51.088;13.732;2023-03-14T06:27:10;11.90;99.90
14993;DHT22;7592;51.088;13.732;2023-03-14T06:32:03;12.00;99.90
14993;DHT22;7592;51.088;13.732;2023-03-14T06:36:57;12.10;99.90
14993;DHT22;7592;51.088;13.732;2023-03-14T06:41:50;12.10;99.90
14993;DHT22;7592;51.088;13.732;2023-03-14T06:46:43;12.20;99.90
14993;DHT22;7592;51.088;13.732;2023-03-14T06:51:36;12.50;99.90
14993;DHT22;7592;51.088;13.732;2023-03-14T06:56:29;12.60;99.90
14993;DHT22;7592;51.088;13.732;2023-03-14T07:01:27;12.70;99.90
14993;DHT22;7592;51.088;13.732;2023-03-14T07:06:27;13.00;99.90
14993;DHT22;7592;51.088;13.732;2023-03-14T07:11:21;13.10;99.90
14993;DHT22;7592;51.088;13.732;2023-03-14T07:16:14;13.00;99.90
14993;DHT22;7592;51.088;13.732;2023-03-14T07:21:07;13.00;99.90
14993;DHT22;7592;51.088;13.732;2023-03-14T07:26:02;13.10;99.90
14993;DHT22;7592;51.088;13.732;2023-03-14T07:30:56;13.00;99.90
14993;DHT22;7592;51.088;13.732;2023-03-14T07:35:54;13.00;99.90
14993;DHT22;7592;51.088;13.732;2023-03-14T07:40:47;13.00;99.90
14993;DHT22;7592;51.088;13.732;2023-03-14T07:45:39;13.00;99.90
14993;DHT22;7592;51.088;13.732;2023-03-14T07:50:34;13.00;99.90
14993;DHT22;7592;51.088;13.732;2023-03-14T07:55:26;13.00;99.90
14993;DHT22;7592;51.088;13.732;2023-03-14T08:00:18;13.10;99.90
14993;DHT22;7592;51.088;13.732;2023-03-14T08:05:10;13.20;99.90
14993;DHT22;7592;51.088;13.732;2023-03-14T08:10:03;13.30;99.90
14993;DHT22;7592;51.088;13.732;2023-03-14T08:14:56;13.30;99.90
14993;DHT22;7592;51.088;13.732;2023-03-14T08:19:48;13.50;99.90
14993;DHT22;7592;51.088;13.732;2023-03-14T08:24:40;13.50;99.90
14993;DHT22;7592;51.088;13.732;2023-03-14T08:29:32;13.70;99.90
14993;DHT22;7592;51.088;13.732;2023-03-14T08:34:25;14.00;99.90
14993;DHT22;7592;51.088;13.732;2023-03-14T08:39:17;14.50;99.90
14993;DHT22;7592;51.088;13.732;2023-03-14T08:44:09;14.60;99.90
14993;DHT22;7592;51.088;13.732;2023-03-14T08:49:03;14.80;99.90
14993;DHT22;7592;51.088;13.732;2023-03-14T08:53:55;15.00;99.90
14993;DHT22;7592;51.088;13.732;2023-03-14T08:58:47;15.30;99.90
14993;DHT22;7592;51.088;13.732;2023-03-14T09:03:39;15.50;99.90
14993;DHT22;7592;51.088;13.732;2023-03-14T09:08:31;15.70;99.90
14993;DHT22;7592;51.088;13.732;2023-03-14T09:13:24;15.90;99.90
14993;DHT22;7592;51.088;13.732;2023-03-14T09:18:16;15.90;99.90
14993;DHT22;7592;51.088;13.732;2023-03-14T09:23:08;15.80;99.90
14993;DHT22;7592;51.088;13.732;2023-03-14T09:28:01;15.80;99.90
14993;DHT22;7592;51.088;13.732;2023-03-14T09:32:53;15.70;99.90
14993;DHT22;7592;51.088;13.732;2023-03-14T09:37:45;15.50;99.90
14993;DHT22;7592;51.088;13.732;2023-03-14T09:42:38;15.20;99.90
14993;DHT22;7592;51.088;13.732;2023-03-14T09:47:34;14.80;99.90
14993;DHT22;7592;51.088;13.732;2023-03-14T09:52:35;14.50;99.90
14993;DHT22;7592;51.088;13.732;2023-03-14T09:57:28;14.40;99.90
14993;DHT22;7592;51.088;13.732;2023-03-14T10:02:23;14.20;99.90
14993;DHT22;7592;51.088;13.732;2023-03-14T10:07:18;14.20;99.90
14993;DHT22;7592;51.088;13.732;2023-03-14T10:12:18;14.10;99.90
14993;DHT22;7592;51.088;13.732;2023-03-14T10:17:12;14.20;99.90
14993;DHT22;7592;51.088;13.732;2023-03-14T10:22:05;14.10;99.90
14993;DHT22;7592;51.088;13.732;2023-03-14T10:27:00;14.20;99.90
14993;DHT22;7592;51.088;13.732;2023-03-14T10:32:05;14.20;99.90
14993;DHT22;7592;51.088;13.732;2023-03-14T10:37:18;14.30;99.90
14993;DHT22;7592;51.088;13.732;2023-03-14T10:42:27;14.50;99.90
14993;DHT22;7592;51.088;13.732;2023-03-14T10:47:25;14.50;99.90
14993;DHT22;7592;51.088;13.732;2023-03-14T10:52:25;14.50;99.90
14993;DHT22;7592;51.088;13.732;2023-03-14T10:57:31;14.50;99.90
14993;DHT22;7592;51.088;13.732;2023-03-14T11:08:01;14.60;99.90
14993;DHT22;7592;51.088;13.732;2023-03-14T11:28:06;14.80;99.90
14993;DHT22;7592;51.088;13.732;2023-03-14T11:33:15;15.00;99.90
14993;DHT22;7592;51.088;13.732;2023-03-14T11:43:17;15.50;99.90
14993;DHT22;7592;51.088;13.732;2023-03-14T11:48:20;16.00;99.90
14993;DHT22;7592;51.088;13.732;2023-03-14T11:53:22;16.00;99.90
14993;DHT22;7592;51.088;13.732;2023-03-14T11:58:25;15.80;99.90
14993;DHT22;7592;51.088;13.732;2023-03-14T12:08:39;15.60;99.90
14993;DHT22;7592;51.088;13.732;2023-03-14T12:13:36;15.40;99.90
14993;DHT22;7592;51.088;13.732;2023-03-14T12:18:35;15.50;99.90
14993;DHT22;7592;51.088;13.732;2023-03-14T12:28:35;16.50;99.90
14993;DHT22;7592;51.088;13.732;2023-03-14T12:33:29;16.90;99.90
14993;DHT22;7592;51.088;13.732;2023-03-14T12:43:34;16.10;99.90
14993;DHT22;7592;51.088;13.732;2023-03-14T12:48:26;16.10;99.90
14993;DHT22;7592;51.088;13.732;2023-03-14T12:53:42;16.20;99.90
14993;DHT22;7592;51.088;13.732;2023-03-14T13:03:51;17.80;99.90
14993;DHT22;7592;51.088;13.732;2023-03-14T13:08:45;18.50;99.90
14993;DHT22;7592;51.088;13.732;2023-03-14T13:13:46;17.80;99.90
14993;DHT22;7592;51.088;13.732;2023-03-14T13:18:41;17.20;99.90
14993;DHT22;7592;51.088;13.732;2023-03-14T13:23:36;16.80;99.90
14993;DHT22;7592;51.088;13.732;2023-03-14T13:28:30;17.00;99.90
14993;DHT22;7592;51.088;13.732;2023-03-14T13:33:23;16.90;99.90
14993;DHT22;7592;51.088;13.732;2023-03-14T13:38:24;17.20;99.90
14993;DHT22;7592;51.088;13.732;2023-03-14T13:48:10;18.20;99.90
14993;DHT22;7592;51.088;13.732;2023-03-14T13:53:04;18.40;99.90
14993;DHT22;7592;51.088;13.732;2023-03-14T13:57:56;18.00;99.90
14993;DHT22;7592;51.088;13.732;2023-03-14T14:02:48;17.60;99.90
14993;DHT22;7592;51.088;13.732;2023-03-14T14:07:42;17.20;99.90
14993;DHT22;7592;51.088;13.732;2023-03-14T14:12:39;17.00;99.90
14993;DHT22;7592;51.088;13.732;2023-03-14T14:17:43;17.10;99.90
14993;DHT22;7592;51.088;13.732;2023-03-14T14:22:36;17.30;99.90
14993;DHT22;7592;51.088;13.732;2023-03-14T14:27:43;17.30;99.90
14993;DHT22;7592;51.088;13.732;2023-03-14T14:32:38;17.60;99.90
14993;DHT22;7592;51.088;13.732;2023-03-14T14:37:43;17.00;99.90
14993;DHT22;7592;51.088;13.732;2023-03-14T14:42:39;16.40;99.90
14993;DHT22;7592;51.088;13.732;2023-03-14T14:47:32;16.50;99.90
14993;DHT22;7592;51.088;13.732;2023-03-14T14:52:39;16.70;99.90
14993;DHT22;7592;51.088;13.732;2023-03-14T14:57:33;16.90;99.90
14993;DHT22;7592;51.088;13.732;2023-03-14T15:02:35;17.20;99.90
14993;DHT22;7592;51.088;13.732;2023-03-14T15:07:29;17.10;99.90
14993;DHT22;7592;51.088;13.732;2023-03-14T15:12:21;17.00;99.90
14993;DHT22;7592;51.088;13.732;2023-03-14T15:17:16;16.80;99.90
14993;DHT22;7592;51.088;13.732;2023-03-14T15:22:12;16.40;99.90
14993;DHT22;7592;51.088;13.732;2023-03-14T15:27:12;15.90;99.90
14993;DHT22;7592;51.088;13.732;2023-03-14T15:32:05;15.70;99.90
14993;DHT22;7592;51.088;13.732;2023-03-14T15:36:57;15.60;99.90
14993;DHT22;7592;51.088;13.732;2023-03-14T15:41:49;15.50;99.90
14993;DHT22;7592;51.088;13.732;2023-03-14T15:46:41;15.40;99.90
14993;DHT22;7592;51.088;13.732;2023-03-14T15:51:33;15.30;99.90
14993;DHT22;7592;51.088;13.732;2023-03-14T15:56:25;15.40;99.90
14993;DHT22;7592;51.088;13.732;2023-03-14T16:01:19;15.30;99.90
14993;DHT22;7592;51.088;13.732;2023-03-14T16:06:13;15.10;99.90
14993;DHT22;7592;51.088;13.732;2023-03-14T16:11:05;15.00;99.90
14993;DHT22;7592;51.088;13.732;2023-03-14T16:16:01;14.90;99.90
14993;DHT22;7592;51.088;13.732;2023-03-14T16:20:55;14.80;99.90
14993;DHT22;7592;51.088;13.732;2023-03-14T16:25:47;14.80;99.90
14993;DHT22;7592;51.088;13.732;2023-03-14T16:30:39;14.70;99.90
14993;DHT22;7592;51.088;13.732;2023-03-14T16:35:31;14.20;99.90
14993;DHT22;7592;51.088;13.732;2023-03-14T16:40:23;13.80;99.90
14993;DHT22;7592;51.088;13.732;2023-03-14T16:45:15;13.20;99.90
14993;DHT22;7592;51.088;13.732;2023-03-14T16:50:09;12.50;99.90
14993;DHT22;7592;51.088;13.732;2023-03-14T16:55:02;11.20;99.90
14993;DHT22;7592;51.088;13.732;2023-03-14T16:59:56;10.20;99.90
14993;DHT22;7592;51.088;13.732;2023-03-14T17:04:48;9.70;99.90
14993;DHT22;7592;51.088;13.732;2023-03-14T17:09:40;9.40;99.90
14993;DHT22;7592;51.088;13.732;2023-03-14T17:14:32;9.10;99.90
14993;DHT22;7592;51.088;13.732;2023-03-14T17:19:24;8.90;99.90
14993;DHT22;7592;51.088;13.732;2023-03-14T17:24:17;8.70;99.90
14993;DHT22;7592;51.088;13.732;2023-03-14T17:29:10;8.60;99.90
14993;DHT22;7592;51.088;13.732;2023-03-14T17:34:02;8.40;99.90
14993;DHT22;7592;51.088;13.732;2023-03-14T17:38:54;8.20;99.90
14993;DHT22;7592;51.088;13.732;2023-03-14T17:43:49;7.30;99.90
14993;DHT22;7592;51.088;13.732;2023-03-14T17:48:45;6.50;99.90
14993;DHT22;7592;51.088;13.732;2023-03-14T17:53:37;6.10;99.90
14993;DHT22;7592;51.088;13.732;2023-03-14T17:58:30;5.90;99.90
14993;DHT22;7592;51.088;13.732;2023-03-14T18:03:25;5.70;99.90
14993;DHT22;7592;51.088;13.732;2023-03-14T18:08:17;5.70;99.90
14993;DHT22;7592;51.088;13.732;2023-03-14T18:13:09;5.60;99.90
14993;DHT22;7592;51.088;13.732;2023-03-14T18:18:01;5.70;99.90
14993;DHT22;7592;51.088;13.732;2023-03-14T18:22:54;5.60;99.90
14993;DHT22;7592;51.088;13.732;2023-03-14T18:27:46;5.60;99.90
14993;DHT22;7592;51.088;13.732;2023-03-14T18:32:38;5.60;99.90
14993;DHT22;7592;51.088;13.732;2023-03-14T18:37:30;5.60;99.90
14993;DHT22;7592;51.088;13.732;2023-03-14T18:42:22;5.60;99.90
14993;DHT22;7592;51.088;13.732;2023-03-14T18:47:14;5.60;99.90
14993;DHT22;7592;51.088;13.732;2023-03-14T18:52:06;5.70;99.90
14993;DHT22;7592;51.088;13.732;2023-03-14T18:56:58;5.60;99.90
14993;DHT22;7592;51.088;13.732;2023-03-14T19:01:51;5.70;99.90
14993;DHT22;7592;51.088;13.732;2023-03-14T19:06:43;5.60;99.90
14993;DHT22;7592;51.088;13.732;2023-03-14T19:11:35;5.70;99.90
14993;DHT22;7592;51.088;13.732;2023-03-14T19:16:27;5.70;99.90
14993;DHT22;7592;51.088;13.732;2023-03-14T19:26:19;5.70;99.90
14993;DHT22;7592;51.088;13.732;2023-03-14T19:31:12;5.80;99.90
14993;DHT22;7592;51.088;13.732;2023-03-14T19:36:05;5.80;99.90
14993;DHT22;7592;51.088;13.732;2023-03-14T19:40:58;5.80;99.90
14993;DHT22;7592;51.088;13.732;2023-03-14T19:45:50;5.80;99.90
14993;DHT22;7592;51.088;13.732;2023-03-14T19:50:42;5.90;99.90
14993;DHT22;7592;51.088;13.732;2023-03-14T19:55:34;5.70;99.90
14993;DHT22;7592;51.088;13.732;2023-03-14T20:00:28;5.70;99.90
14993;DHT22;7592;51.088;13.732;2023-03-14T20:05:22;5.60;99.90
14993;DHT22;7592;51.088;13.732;2023-03-14T20:10:17;5.50;99.90
14993;DHT22;7592;51.088;13.732;2023-03-14T20:15:11;5.30;99.90
14993;DHT22;7592;51.088;13.732;2023-03-14T20:20:06;5.20;99.90
14993;DHT22;7592;51.088;13.732;2023-03-14T20:25:01;5.10;99.90
14993;DHT22;7592;51.088;13.732;2023-03-14T20:29:55;5.10;99.90
14993;DHT22;7592;51.088;13.732;2023-03-14T20:34:48;5.00;99.90
14993;DHT22;7592;51.088;13.732;2023-03-14T20:39:40;5.10;99.90
14993;DHT22;7592;51.088;13.732;2023-03-14T20:44:32;5.10;99.90
14993;DHT22;7592;51.088;13.732;2023-03-14T20:49:24;4.90;99.90
14993;DHT22;7592;51.088;13.732;2023-03-14T20:54:16;4.90;99.90
14993;DHT22;7592;51.088;13.732;2023-03-14T20:59:09;4.80;99.90
14993;DHT22;7592;51.088;13.732;2023-03-14T21:04:01;4.70;99.90
14993;DHT22;7592;51.088;13.732;2023-03-14T21:08:53;4.60;99.90
14993;DHT22;7592;51.088;13.732;2023-03-14T21:13:45;4.50;99.90
14993;DHT22;7592;51.088;13.732;2023-03-14T21:18:37;4.40;99.90
14993;DHT22;7592;51.088;13.732;2023-03-14T21:23:29;4.30;99.90
14993;DHT22;7592;51.088;13.732;2023-03-14T21:28:25;4.10;99.90
14993;DHT22;7592;51.088;13.732;2023-03-14T21:33:17;4.00;99.90
14993;DHT22;7592;51.088;13.732;2023-03-14T21:38:09;3.80;99.90
14993;DHT22;7592;51.088;13.732;2023-03-14T21:43:01;3.70;99.90
14993;DHT22;7592;51.088;13.732;2023-03-14T21:47:57;3.50;99.90
14993;DHT22;7592;51.088;13.732;2023-03-14T21:52:51;3.60;99.90
14993;DHT22;7592;51.088;13.732;2023-03-14T21:57:48;3.50;99.90
14993;DHT22;7592;51.088;13.732;2023-03-14T22:02:40;3.60;99.90
14993;DHT22;7592;51.088;13.732;2023-03-14T22:07:38;3.40;99.90
14993;DHT22;7592;51.088;13.732;2023-03-14T22:12:32;3.40;99.90
14993;DHT22;7592;51.088;13.732;2023-03-14T22:17:24;3.30;99.90
14993;DHT22;7592;51.088;13.732;2023-03-14T22:22:17;3.30;99.90
14993;DHT22;7592;51.088;13.732;2023-03-14T22:27:10;3.30;99.90
14993;DHT22;7592;51.088;13.732;2023-03-14T22:32:05;3.20;99.90
14993;DHT22;7592;51.088;13.732;2023-03-14T22:37:03;3.20;99.90
14993;DHT22;7592;51.088;13.732;2023-03-14T22:41:55;3.00;99.90
14993;DHT22;7592;51.088;13.732;2023-03-14T22:46:47;3.00;99.90
14993;DHT22;7592;51.088;13.732;2023-03-14T22:51:40;2.80;99.90
14993;DHT22;7592;51.088;13.732;2023-03-14T22:56:32;2.80;99.90
14993;DHT22;7592;51.088;13.732;2023-03-14T23:01:24;2.70;99.90
14993;DHT22;7592;51.088;13.732;2023-03-14T23:06:17;2.60;99.90
14993;DHT22;7592;51.088;13.732;2023-03-14T23:11:10;2.70;99.90
14993;DHT22;7592;51.088;13.732;2023-03-14T23:16:12;2.60;99.90
14993;DHT22;7592;51.088;13.732;2023-03-14T23:21:10;2.50;99.90
14993;DHT22;7592;51.088;13.732;2023-03-14T23:26:03;2.60;99.90
14993;DHT22;7592;51.088;13.732;2023-03-14T23:30:57;2.50;99.90
14993;DHT22;7592;51.088;13.732;2023-03-14T23:35:49;2.50;99.90
14993;DHT22;7592;51.088;13.732;2023-03-14T23:40:42;2.40;99.90
14993;DHT22;7592;51.088;13.732;2023-03-14T23:45:34;2.40;99.90
14993;DHT22;7592;51.088;13.732;2023-03-14T23:50:26;2.30;99.90
14993;DHT22;7592;51.088;13.732;2023-03-14T23:55:20;2.20;99.90
